sensor_id;sensor_type;location;lat;lon;timestamp;P1;durP1;ratioP1;P2;durP2;ratioP2
41663;SDS011;27353;50.906;7.248;2022-12-18T00:02:14;20.20;;;14.75;;
41663;SDS011;27353;50.906;7.248;2022-12-18T00:04:40;22.88;;;13.85;;
41663;SDS011;27353;50.906;7.248;2022-12-18T00:07:06;16.80;;;13.25;;
41663;SDS011;27353;50.906;7.248;2022-12-18T00:09:31;20.38;;;13.15;;
41663;SDS011;27353;50.906;7.248;2022-12-18T00:11:57;15.45;;;13.90;;
41663;SDS011;27353;50.906;7.248;2022-12-18T00:14:23;20.52;;;15.77;;
41663;SDS011;27353;50.906;7.248;2022-12-18T00:16:48;22.95;;;14.98;;
41663;SDS011;27353;50.906;7.248;2022-12-18T00:19:14;16.60;;;12.90;;
41663;SDS011;27353;50.906;7.248;2022-12-18T00:21:40;22.00;;;12.95;;
41663;SDS011;27353;50.906;7.248;2022-12-18T00:24:07;14.55;;;12.50;;
41663;SDS011;27353;50.906;7.248;2022-12-18T00:26:34;16.70;;;13.02;;
41663;SDS011;27353;50.906;7.248;2022-12-18T00:29:03;14.82;;;11.75;;
41663;SDS011;27353;50.906;7.248;2022-12-18T00:31:37;18.88;;;12.55;;
41663;SDS011;27353;50.906;7.248;2022-12-18T00:34:03;15.02;;;12.15;;
41663;SDS011;27353;50.906;7.248;2022-12-18T00:36:30;13.60;;;10.85;;
41663;SDS011;27353;50.906;7.248;2022-12-18T00:38:58;17.88;;;13.52;;
41663;SDS011;27353;50.906;7.248;2022-12-18T00:41:25;24.65;;;14.32;;
41663;SDS011;27353;50.906;7.248;2022-12-18T00:44:11;17.73;;;11.98;;
41663;SDS011;27353;50.906;7.248;2022-12-18T00:46:38;14.07;;;11.18;;
41663;SDS011;27353;50.906;7.248;2022-12-18T00:49:04;17.45;;;13.57;;
41663;SDS011;27353;50.906;7.248;2022-12-18T00:51:30;16.63;;;12.43;;
41663;SDS011;27353;50.906;7.248;2022-12-18T00:53:56;15.52;;;13.63;;
41663;SDS011;27353;50.906;7.248;2022-12-18T00:56:21;14.85;;;12.43;;
41663;SDS011;27353;50.906;7.248;2022-12-18T00:58:47;15.75;;;13.05;;
41663;SDS011;27353;50.906;7.248;2022-12-18T01:01:13;16.50;;;12.60;;
41663;SDS011;27353;50.906;7.248;2022-12-18T01:03:39;16.77;;;14.02;;
41663;SDS011;27353;50.906;7.248;2022-12-18T01:06:08;14.88;;;12.80;;
41663;SDS011;27353;50.906;7.248;2022-12-18T01:08:35;24.98;;;13.70;;
41663;SDS011;27353;50.906;7.248;2022-12-18T01:11:06;14.38;;;11.90;;
41663;SDS011;27353;50.906;7.248;2022-12-18T01:13:36;14.05;;;12.55;;
41663;SDS011;27353;50.906;7.248;2022-12-18T01:16:03;21.77;;;13.40;;
41663;SDS011;27353;50.906;7.248;2022-12-18T01:18:28;16.60;;;12.35;;
41663;SDS011;27353;50.906;7.248;2022-12-18T01:20:54;14.52;;;12.23;;
41663;SDS011;27353;50.906;7.248;2022-12-18T01:23:20;20.98;;;12.52;;
41663;SDS011;27353;50.906;7.248;2022-12-18T01:25:45;18.83;;;14.80;;
41663;SDS011;27353;50.906;7.248;2022-12-18T01:28:11;24.42;;;13.73;;
41663;SDS011;27353;50.906;7.248;2022-12-18T01:30:36;18.88;;;14.00;;
41663;SDS011;27353;50.906;7.248;2022-12-18T01:33:04;15.18;;;13.30;;
41663;SDS011;27353;50.906;7.248;2022-12-18T01:35:30;19.27;;;13.43;;
41663;SDS011;27353;50.906;7.248;2022-12-18T01:37:56;13.85;;;11.23;;
41663;SDS011;27353;50.906;7.248;2022-12-18T01:40:22;14.98;;;12.18;;
41663;SDS011;27353;50.906;7.248;2022-12-18T01:42:51;15.30;;;12.43;;
41663;SDS011;27353;50.906;7.248;2022-12-18T01:52:46;15.40;;;13.23;;
41663;SDS011;27353;50.906;7.248;2022-12-18T01:55:17;12.55;;;11.20;;
41663;SDS011;27353;50.906;7.248;2022-12-18T01:57:45;16.80;;;11.50;;
41663;SDS011;27353;50.906;7.248;2022-12-18T02:00:13;22.65;;;12.40;;
41663;SDS011;27353;50.906;7.248;2022-12-18T02:02:43;21.38;;;12.32;;
41663;SDS011;27353;50.906;7.248;2022-12-18T02:05:10;15.20;;;12.20;;
41663;SDS011;27353;50.906;7.248;2022-12-18T02:10:27;13.50;;;11.25;;
41663;SDS011;27353;50.906;7.248;2022-12-18T02:18:28;13.25;;;11.90;;
41663;SDS011;27353;50.906;7.248;2022-12-18T02:23:56;14.80;;;11.65;;
41663;SDS011;27353;50.906;7.248;2022-12-18T02:26:48;15.02;;;10.90;;
41663;SDS011;27353;50.906;7.248;2022-12-18T02:32:14;13.05;;;11.68;;
41663;SDS011;27353;50.906;7.248;2022-12-18T02:34:44;14.63;;;10.70;;
41663;SDS011;27353;50.906;7.248;2022-12-18T02:37:12;12.95;;;11.07;;
41663;SDS011;27353;50.906;7.248;2022-12-18T02:39:41;14.75;;;11.48;;
41663;SDS011;27353;50.906;7.248;2022-12-18T02:42:09;14.95;;;11.68;;
41663;SDS011;27353;50.906;7.248;2022-12-18T02:44:46;11.77;;;10.68;;
41663;SDS011;27353;50.906;7.248;2022-12-18T02:47:14;13.40;;;12.10;;
41663;SDS011;27353;50.906;7.248;2022-12-18T02:49:44;12.98;;;11.65;;
41663;SDS011;27353;50.906;7.248;2022-12-18T02:57:50;14.15;;;12.68;;
41663;SDS011;27353;50.906;7.248;2022-12-18T03:00:19;15.48;;;12.95;;
41663;SDS011;27353;50.906;7.248;2022-12-18T03:03:35;15.30;;;11.30;;
41663;SDS011;27353;50.906;7.248;2022-12-18T03:08:12;13.05;;;11.95;;
41663;SDS011;27353;50.906;7.248;2022-12-18T03:11:11;14.30;;;10.75;;
41663;SDS011;27353;50.906;7.248;2022-12-18T03:16:18;16.67;;;10.93;;
41663;SDS011;27353;50.906;7.248;2022-12-18T03:18:49;12.27;;;11.23;;
41663;SDS011;27353;50.906;7.248;2022-12-18T03:21:21;14.00;;;10.50;;
41663;SDS011;27353;50.906;7.248;2022-12-18T03:23:54;13.93;;;11.57;;
41663;SDS011;27353;50.906;7.248;2022-12-18T03:26:22;12.40;;;10.38;;
41663;SDS011;27353;50.906;7.248;2022-12-18T03:28:51;16.70;;;11.70;;
41663;SDS011;27353;50.906;7.248;2022-12-18T03:31:22;16.35;;;11.18;;
41663;SDS011;27353;50.906;7.248;2022-12-18T03:33:52;12.02;;;10.82;;
41663;SDS011;27353;50.906;7.248;2022-12-18T03:36:20;13.30;;;10.77;;
41663;SDS011;27353;50.906;7.248;2022-12-18T03:38:46;17.05;;;10.48;;
41663;SDS011;27353;50.906;7.248;2022-12-18T03:44:15;15.48;;;11.50;;
41663;SDS011;27353;50.906;7.248;2022-12-18T03:49:33;14.07;;;12.57;;
41663;SDS011;27353;50.906;7.248;2022-12-18T03:52:09;11.52;;;10.45;;
41663;SDS011;27353;50.906;7.248;2022-12-18T03:54:39;12.18;;;10.95;;
41663;SDS011;27353;50.906;7.248;2022-12-18T03:57:09;12.80;;;11.43;;
41663;SDS011;27353;50.906;7.248;2022-12-18T03:59:44;10.93;;;9.80;;
41663;SDS011;27353;50.906;7.248;2022-12-18T04:02:12;12.05;;;10.55;;
41663;SDS011;27353;50.906;7.248;2022-12-18T04:04:40;16.50;;;10.80;;
41663;SDS011;27353;50.906;7.248;2022-12-18T04:07:06;12.43;;;11.18;;
41663;SDS011;27353;50.906;7.248;2022-12-18T04:09:33;14.85;;;10.98;;
41663;SDS011;27353;50.906;7.248;2022-12-18T04:12:00;11.75;;;10.55;;
41663;SDS011;27353;50.906;7.248;2022-12-18T04:14:26;12.68;;;10.95;;
41663;SDS011;27353;50.906;7.248;2022-12-18T04:16:51;13.77;;;11.90;;
41663;SDS011;27353;50.906;7.248;2022-12-18T04:19:17;11.30;;;10.13;;
41663;SDS011;27353;50.906;7.248;2022-12-18T04:21:43;14.98;;;13.20;;
41663;SDS011;27353;50.906;7.248;2022-12-18T04:24:08;12.10;;;10.95;;
41663;SDS011;27353;50.906;7.248;2022-12-18T04:26:34;13.57;;;11.00;;
41663;SDS011;27353;50.906;7.248;2022-12-18T04:29:00;13.90;;;10.68;;
41663;SDS011;27353;50.906;7.248;2022-12-18T04:31:26;12.73;;;11.52;;
41663;SDS011;27353;50.906;7.248;2022-12-18T04:33:51;11.93;;;10.77;;
41663;SDS011;27353;50.906;7.248;2022-12-18T04:36:17;15.73;;;11.80;;
41663;SDS011;27353;50.906;7.248;2022-12-18T04:38:43;13.98;;;11.77;;
41663;SDS011;27353;50.906;7.248;2022-12-18T04:41:08;12.50;;;10.77;;
41663;SDS011;27353;50.906;7.248;2022-12-18T04:43:34;14.13;;;11.68;;
41663;SDS011;27353;50.906;7.248;2022-12-18T04:46:03;15.18;;;13.15;;
41663;SDS011;27353;50.906;7.248;2022-12-18T04:48:30;13.77;;;11.07;;
41663;SDS011;27353;50.906;7.248;2022-12-18T04:50:55;12.45;;;11.05;;
41663;SDS011;27353;50.906;7.248;2022-12-18T04:53:21;13.27;;;12.10;;
41663;SDS011;27353;50.906;7.248;2022-12-18T04:55:47;13.80;;;12.35;;
41663;SDS011;27353;50.906;7.248;2022-12-18T04:58:12;13.50;;;11.63;;
41663;SDS011;27353;50.906;7.248;2022-12-18T05:00:38;15.13;;;12.32;;
41663;SDS011;27353;50.906;7.248;2022-12-18T05:03:04;17.48;;;12.43;;
41663;SDS011;27353;50.906;7.248;2022-12-18T05:05:29;12.80;;;10.50;;
41663;SDS011;27353;50.906;7.248;2022-12-18T05:07:55;13.77;;;11.85;;
41663;SDS011;27353;50.906;7.248;2022-12-18T05:10:21;12.90;;;11.52;;
41663;SDS011;27353;50.906;7.248;2022-12-18T05:12:46;18.83;;;13.43;;
41663;SDS011;27353;50.906;7.248;2022-12-18T05:15:30;13.77;;;12.23;;
41663;SDS011;27353;50.906;7.248;2022-12-18T05:17:57;16.48;;;12.77;;
41663;SDS011;27353;50.906;7.248;2022-12-18T05:20:24;14.57;;;13.07;;
41663;SDS011;27353;50.906;7.248;2022-12-18T05:22:50;17.52;;;14.05;;
41663;SDS011;27353;50.906;7.248;2022-12-18T05:25:16;13.60;;;11.35;;
41663;SDS011;27353;50.906;7.248;2022-12-18T05:27:42;19.30;;;12.70;;
41663;SDS011;27353;50.906;7.248;2022-12-18T05:30:08;13.70;;;11.95;;
41663;SDS011;27353;50.906;7.248;2022-12-18T05:32:34;15.10;;;12.73;;
41663;SDS011;27353;50.906;7.248;2022-12-18T05:35:00;16.77;;;13.45;;
41663;SDS011;27353;50.906;7.248;2022-12-18T05:37:26;19.75;;;12.95;;
41663;SDS011;27353;50.906;7.248;2022-12-18T05:39:51;20.33;;;13.15;;
41663;SDS011;27353;50.906;7.248;2022-12-18T05:42:17;16.02;;;12.60;;
41663;SDS011;27353;50.906;7.248;2022-12-18T05:44:43;12.75;;;11.48;;
41663;SDS011;27353;50.906;7.248;2022-12-18T05:47:08;18.20;;;11.65;;
41663;SDS011;27353;50.906;7.248;2022-12-18T05:49:34;15.75;;;13.18;;
41663;SDS011;27353;50.906;7.248;2022-12-18T05:52:00;22.23;;;15.60;;
41663;SDS011;27353;50.906;7.248;2022-12-18T05:54:28;18.40;;;12.40;;
41663;SDS011;27353;50.906;7.248;2022-12-18T05:56:54;21.45;;;14.52;;
41663;SDS011;27353;50.906;7.248;2022-12-18T05:59:20;16.70;;;12.82;;
41663;SDS011;27353;50.906;7.248;2022-12-18T06:01:45;24.67;;;13.27;;
41663;SDS011;27353;50.906;7.248;2022-12-18T06:04:11;14.43;;;11.60;;
41663;SDS011;27353;50.906;7.248;2022-12-18T06:06:37;15.23;;;11.93;;
41663;SDS011;27353;50.906;7.248;2022-12-18T06:09:02;16.20;;;12.23;;
41663;SDS011;27353;50.906;7.248;2022-12-18T06:11:33;13.77;;;12.40;;
41663;SDS011;27353;50.906;7.248;2022-12-18T06:14:00;14.43;;;13.07;;
41663;SDS011;27353;50.906;7.248;2022-12-18T06:16:26;14.07;;;12.38;;
41663;SDS011;27353;50.906;7.248;2022-12-18T06:18:52;18.52;;;13.18;;
41663;SDS011;27353;50.906;7.248;2022-12-18T06:21:18;15.93;;;12.80;;
41663;SDS011;27353;50.906;7.248;2022-12-18T06:23:44;19.92;;;14.15;;
41663;SDS011;27353;50.906;7.248;2022-12-18T06:26:10;14.65;;;12.55;;
41663;SDS011;27353;50.906;7.248;2022-12-18T06:28:37;21.98;;;14.52;;
41663;SDS011;27353;50.906;7.248;2022-12-18T06:31:03;16.88;;;13.90;;
41663;SDS011;27353;50.906;7.248;2022-12-18T06:33:29;18.67;;;14.10;;
41663;SDS011;27353;50.906;7.248;2022-12-18T06:35:59;14.93;;;13.50;;
41663;SDS011;27353;50.906;7.248;2022-12-18T06:38:37;18.70;;;14.00;;
41663;SDS011;27353;50.906;7.248;2022-12-18T06:41:13;17.10;;;13.65;;
41663;SDS011;27353;50.906;7.248;2022-12-18T06:43:43;21.65;;;13.27;;
41663;SDS011;27353;50.906;7.248;2022-12-18T06:46:09;14.55;;;13.02;;
41663;SDS011;27353;50.906;7.248;2022-12-18T06:48:36;20.40;;;14.95;;
41663;SDS011;27353;50.906;7.248;2022-12-18T06:51:02;15.00;;;13.60;;
41663;SDS011;27353;50.906;7.248;2022-12-18T06:53:28;17.50;;;13.05;;
41663;SDS011;27353;50.906;7.248;2022-12-18T06:56:04;15.25;;;13.25;;
41663;SDS011;27353;50.906;7.248;2022-12-18T06:58:32;18.10;;;13.93;;
41663;SDS011;27353;50.906;7.248;2022-12-18T07:01:01;16.20;;;13.10;;
41663;SDS011;27353;50.906;7.248;2022-12-18T07:03:29;13.32;;;12.20;;
41663;SDS011;27353;50.906;7.248;2022-12-18T07:05:55;16.10;;;13.10;;
41663;SDS011;27353;50.906;7.248;2022-12-18T07:08:21;14.43;;;12.93;;
41663;SDS011;27353;50.906;7.248;2022-12-18T07:10:46;17.98;;;14.27;;
41663;SDS011;27353;50.906;7.248;2022-12-18T07:13:14;18.02;;;13.40;;
41663;SDS011;27353;50.906;7.248;2022-12-18T07:15:40;17.63;;;14.13;;
41663;SDS011;27353;50.906;7.248;2022-12-18T07:18:06;18.77;;;13.40;;
41663;SDS011;27353;50.906;7.248;2022-12-18T07:20:31;15.10;;;12.55;;
41663;SDS011;27353;50.906;7.248;2022-12-18T07:22:57;18.48;;;13.15;;
41663;SDS011;27353;50.906;7.248;2022-12-18T07:25:22;13.32;;;11.55;;
41663;SDS011;27353;50.906;7.248;2022-12-18T07:27:48;14.63;;;11.70;;
41663;SDS011;27353;50.906;7.248;2022-12-18T07:30:13;20.23;;;12.55;;
41663;SDS011;27353;50.906;7.248;2022-12-18T07:32:39;17.05;;;13.18;;
41663;SDS011;27353;50.906;7.248;2022-12-18T07:35:05;15.82;;;12.63;;
41663;SDS011;27353;50.906;7.248;2022-12-18T07:37:31;15.10;;;12.82;;
41663;SDS011;27353;50.906;7.248;2022-12-18T07:39:56;17.27;;;13.30;;
41663;SDS011;27353;50.906;7.248;2022-12-18T07:42:22;18.25;;;12.40;;
41663;SDS011;27353;50.906;7.248;2022-12-18T07:44:56;14.35;;;11.82;;
41663;SDS011;27353;50.906;7.248;2022-12-18T07:47:23;15.50;;;12.15;;
41663;SDS011;27353;50.906;7.248;2022-12-18T07:49:49;18.02;;;12.98;;
41663;SDS011;27353;50.906;7.248;2022-12-18T07:52:14;16.92;;;11.10;;
41663;SDS011;27353;50.906;7.248;2022-12-18T07:54:40;18.52;;;11.77;;
41663;SDS011;27353;50.906;7.248;2022-12-18T07:57:06;13.85;;;12.07;;
41663;SDS011;27353;50.906;7.248;2022-12-18T07:59:32;12.43;;;10.98;;
41663;SDS011;27353;50.906;7.248;2022-12-18T08:01:57;14.88;;;12.23;;
41663;SDS011;27353;50.906;7.248;2022-12-18T08:04:23;17.35;;;14.45;;
41663;SDS011;27353;50.906;7.248;2022-12-18T08:06:50;24.05;;;13.38;;
41663;SDS011;27353;50.906;7.248;2022-12-18T08:09:15;18.80;;;13.90;;
41663;SDS011;27353;50.906;7.248;2022-12-18T08:11:42;16.42;;;13.43;;
41663;SDS011;27353;50.906;7.248;2022-12-18T08:14:07;15.15;;;12.82;;
41663;SDS011;27353;50.906;7.248;2022-12-18T08:16:33;17.73;;;14.60;;
41663;SDS011;27353;50.906;7.248;2022-12-18T08:18:59;16.58;;;15.07;;
41663;SDS011;27353;50.906;7.248;2022-12-18T08:21:25;19.05;;;15.20;;
41663;SDS011;27353;50.906;7.248;2022-12-18T08:23:53;21.70;;;19.58;;
41663;SDS011;27353;50.906;7.248;2022-12-18T08:26:20;19.20;;;17.40;;
41663;SDS011;27353;50.906;7.248;2022-12-18T08:28:46;20.13;;;18.42;;
41663;SDS011;27353;50.906;7.248;2022-12-18T08:31:13;20.35;;;18.02;;
41663;SDS011;27353;50.906;7.248;2022-12-18T08:33:39;19.65;;;17.85;;
41663;SDS011;27353;50.906;7.248;2022-12-18T08:36:05;17.70;;;16.48;;
41663;SDS011;27353;50.906;7.248;2022-12-18T08:38:32;18.83;;;17.23;;
41663;SDS011;27353;50.906;7.248;2022-12-18T08:41:05;18.80;;;17.02;;
41663;SDS011;27353;50.906;7.248;2022-12-18T08:43:32;21.33;;;19.45;;
41663;SDS011;27353;50.906;7.248;2022-12-18T08:46:17;18.70;;;17.00;;
41663;SDS011;27353;50.906;7.248;2022-12-18T08:48:43;18.88;;;16.67;;
41663;SDS011;27353;50.906;7.248;2022-12-18T08:51:09;20.38;;;18.33;;
41663;SDS011;27353;50.906;7.248;2022-12-18T08:53:36;19.67;;;17.67;;
41663;SDS011;27353;50.906;7.248;2022-12-18T08:56:02;19.50;;;17.33;;
41663;SDS011;27353;50.906;7.248;2022-12-18T08:58:29;19.98;;;17.95;;
41663;SDS011;27353;50.906;7.248;2022-12-18T09:00:59;18.33;;;16.55;;
41663;SDS011;27353;50.906;7.248;2022-12-18T09:03:28;21.02;;;17.13;;
41663;SDS011;27353;50.906;7.248;2022-12-18T09:05:55;20.77;;;18.45;;
41663;SDS011;27353;50.906;7.248;2022-12-18T09:08:20;24.23;;;18.70;;
41663;SDS011;27353;50.906;7.248;2022-12-18T09:10:47;22.33;;;16.90;;
41663;SDS011;27353;50.906;7.248;2022-12-18T09:13:15;17.35;;;15.32;;
41663;SDS011;27353;50.906;7.248;2022-12-18T09:15:41;19.20;;;17.25;;
41663;SDS011;27353;50.906;7.248;2022-12-18T09:18:08;21.17;;;16.25;;
41663;SDS011;27353;50.906;7.248;2022-12-18T09:20:35;18.75;;;16.95;;
41663;SDS011;27353;50.906;7.248;2022-12-18T09:23:01;18.67;;;16.95;;
41663;SDS011;27353;50.906;7.248;2022-12-18T09:25:28;24.75;;;19.13;;
41663;SDS011;27353;50.906;7.248;2022-12-18T09:28:10;20.13;;;15.57;;
41663;SDS011;27353;50.906;7.248;2022-12-18T09:30:38;20.40;;;18.00;;
41663;SDS011;27353;50.906;7.248;2022-12-18T09:33:04;17.70;;;15.77;;
41663;SDS011;27353;50.906;7.248;2022-12-18T09:35:30;19.50;;;17.48;;
41663;SDS011;27353;50.906;7.248;2022-12-18T09:37:55;19.00;;;16.27;;
41663;SDS011;27353;50.906;7.248;2022-12-18T09:40:22;17.83;;;15.95;;
41663;SDS011;27353;50.906;7.248;2022-12-18T09:42:54;20.08;;;18.15;;
41663;SDS011;27353;50.906;7.248;2022-12-18T09:45:24;18.60;;;16.40;;
41663;SDS011;27353;50.906;7.248;2022-12-18T09:47:49;20.98;;;19.10;;
41663;SDS011;27353;50.906;7.248;2022-12-18T09:52:55;21.05;;;18.80;;
41663;SDS011;27353;50.906;7.248;2022-12-18T09:55:31;22.27;;;18.88;;
41663;SDS011;27353;50.906;7.248;2022-12-18T10:00:44;19.13;;;17.65;;
41663;SDS011;27353;50.906;7.248;2022-12-18T10:03:10;18.38;;;16.65;;
41663;SDS011;27353;50.906;7.248;2022-12-18T10:14:23;19.25;;;17.40;;
41663;SDS011;27353;50.906;7.248;2022-12-18T10:26:02;19.75;;;17.80;;
41663;SDS011;27353;50.906;7.248;2022-12-18T10:28:34;19.33;;;17.60;;
41663;SDS011;27353;50.906;7.248;2022-12-18T10:31:05;21.63;;;19.35;;
41663;SDS011;27353;50.906;7.248;2022-12-18T10:33:32;18.88;;;17.08;;
41663;SDS011;27353;50.906;7.248;2022-12-18T10:35:59;19.05;;;17.60;;
41663;SDS011;27353;50.906;7.248;2022-12-18T10:38:26;20.38;;;18.60;;
41663;SDS011;27353;50.906;7.248;2022-12-18T10:43:30;21.17;;;19.30;;
41663;SDS011;27353;50.906;7.248;2022-12-18T10:46:01;19.25;;;17.60;;
41663;SDS011;27353;50.906;7.248;2022-12-18T10:48:28;20.73;;;19.02;;
41663;SDS011;27353;50.906;7.248;2022-12-18T10:50:55;20.52;;;18.55;;
41663;SDS011;27353;50.906;7.248;2022-12-18T10:53:22;21.38;;;19.55;;
41663;SDS011;27353;50.906;7.248;2022-12-18T10:55:50;19.10;;;17.60;;
41663;SDS011;27353;50.906;7.248;2022-12-18T11:03:34;20.38;;;18.50;;
41663;SDS011;27353;50.906;7.248;2022-12-18T11:08:33;20.00;;;16.65;;
41663;SDS011;27353;50.906;7.248;2022-12-18T11:10:59;20.60;;;18.90;;
41663;SDS011;27353;50.906;7.248;2022-12-18T11:13:27;21.67;;;19.80;;
41663;SDS011;27353;50.906;7.248;2022-12-18T11:15:54;24.67;;;22.40;;
41663;SDS011;27353;50.906;7.248;2022-12-18T11:20:58;20.35;;;18.50;;
41663;SDS011;27353;50.906;7.248;2022-12-18T11:23:35;21.35;;;19.50;;
41663;SDS011;27353;50.906;7.248;2022-12-18T11:26:02;22.85;;;20.65;;
41663;SDS011;27353;50.906;7.248;2022-12-18T11:33:37;22.95;;;19.90;;
41663;SDS011;27353;50.906;7.248;2022-12-18T11:36:06;24.30;;;21.67;;
41663;SDS011;27353;50.906;7.248;2022-12-18T11:38:35;21.55;;;19.70;;
41663;SDS011;27353;50.906;7.248;2022-12-18T11:41:26;21.05;;;19.15;;
41663;SDS011;27353;50.906;7.248;2022-12-18T11:44:29;23.70;;;20.95;;
41663;SDS011;27353;50.906;7.248;2022-12-18T11:47:03;20.25;;;18.25;;
41663;SDS011;27353;50.906;7.248;2022-12-18T11:49:55;22.38;;;20.17;;
41663;SDS011;27353;50.906;7.248;2022-12-18T11:52:26;22.13;;;19.92;;
41663;SDS011;27353;50.906;7.248;2022-12-18T11:54:58;23.52;;;21.00;;
41663;SDS011;27353;50.906;7.248;2022-12-18T12:00:20;22.63;;;20.27;;
41663;SDS011;27353;50.906;7.248;2022-12-18T12:14:04;20.88;;;18.60;;
41663;SDS011;27353;50.906;7.248;2022-12-18T12:16:51;24.33;;;21.67;;
41663;SDS011;27353;50.906;7.248;2022-12-18T12:19:36;23.17;;;20.75;;
41663;SDS011;27353;50.906;7.248;2022-12-18T12:22:16;26.42;;;20.73;;
41663;SDS011;27353;50.906;7.248;2022-12-18T12:40:19;18.85;;;16.90;;
41663;SDS011;27353;50.906;7.248;2022-12-18T12:42:48;27.45;;;21.00;;
41663;SDS011;27353;50.906;7.248;2022-12-18T12:45:51;33.78;;;20.85;;
41663;SDS011;27353;50.906;7.248;2022-12-18T12:51:28;26.25;;;19.20;;
41663;SDS011;27353;50.906;7.248;2022-12-18T12:53:57;29.50;;;21.13;;
41663;SDS011;27353;50.906;7.248;2022-12-18T12:56:24;29.05;;;19.55;;
41663;SDS011;27353;50.906;7.248;2022-12-18T13:12:57;27.35;;;20.38;;
41663;SDS011;27353;50.906;7.248;2022-12-18T13:23:28;26.10;;;20.08;;
41663;SDS011;27353;50.906;7.248;2022-12-18T13:26:28;28.92;;;20.50;;
41663;SDS011;27353;50.906;7.248;2022-12-18T13:34:22;21.38;;;17.52;;
41663;SDS011;27353;50.906;7.248;2022-12-18T13:36:52;26.98;;;21.05;;
41663;SDS011;27353;50.906;7.248;2022-12-18T13:41:49;24.83;;;18.67;;
41663;SDS011;27353;50.906;7.248;2022-12-18T13:46:54;30.38;;;19.85;;
41663;SDS011;27353;50.906;7.248;2022-12-18T13:52:01;27.40;;;22.00;;
41663;SDS011;27353;50.906;7.248;2022-12-18T13:54:35;27.90;;;19.80;;
41663;SDS011;27353;50.906;7.248;2022-12-18T13:57:04;23.50;;;18.95;;
41663;SDS011;27353;50.906;7.248;2022-12-18T13:59:49;23.90;;;20.63;;
41663;SDS011;27353;50.906;7.248;2022-12-18T14:02:17;29.85;;;21.92;;
41663;SDS011;27353;50.906;7.248;2022-12-18T14:04:46;34.80;;;24.70;;
41663;SDS011;27353;50.906;7.248;2022-12-18T14:07:14;30.90;;;21.83;;
41663;SDS011;27353;50.906;7.248;2022-12-18T14:09:58;38.47;;;25.55;;
41663;SDS011;27353;50.906;7.248;2022-12-18T14:12:27;31.02;;;21.83;;
41663;SDS011;27353;50.906;7.248;2022-12-18T14:17:52;26.00;;;19.17;;
41663;SDS011;27353;50.906;7.248;2022-12-18T14:20:20;33.47;;;20.67;;
41663;SDS011;27353;50.906;7.248;2022-12-18T14:22:47;34.28;;;19.95;;
41663;SDS011;27353;50.906;7.248;2022-12-18T14:25:18;31.88;;;20.30;;
41663;SDS011;27353;50.906;7.248;2022-12-18T14:27:46;33.42;;;21.58;;
41663;SDS011;27353;50.906;7.248;2022-12-18T14:43:30;32.42;;;20.58;;
41663;SDS011;27353;50.906;7.248;2022-12-18T14:45:58;29.08;;;20.65;;
41663;SDS011;27353;50.906;7.248;2022-12-18T14:48:35;29.23;;;21.92;;
41663;SDS011;27353;50.906;7.248;2022-12-18T14:51:16;28.70;;;21.75;;
41663;SDS011;27353;50.906;7.248;2022-12-18T14:54:03;30.48;;;21.75;;
41663;SDS011;27353;50.906;7.248;2022-12-18T14:56:43;24.80;;;18.48;;
41663;SDS011;27353;50.906;7.248;2022-12-18T14:59:19;31.95;;;22.27;;
41663;SDS011;27353;50.906;7.248;2022-12-18T15:09:33;29.75;;;21.27;;
41663;SDS011;27353;50.906;7.248;2022-12-18T15:12:00;38.67;;;21.45;;
41663;SDS011;27353;50.906;7.248;2022-12-18T15:16:55;34.42;;;23.13;;
41663;SDS011;27353;50.906;7.248;2022-12-18T15:19:22;37.72;;;25.50;;
41663;SDS011;27353;50.906;7.248;2022-12-18T15:21:59;37.35;;;26.38;;
41663;SDS011;27353;50.906;7.248;2022-12-18T15:24:27;32.40;;;21.23;;
41663;SDS011;27353;50.906;7.248;2022-12-18T15:29:22;31.83;;;22.25;;
41663;SDS011;27353;50.906;7.248;2022-12-18T15:32:04;33.90;;;22.40;;
41663;SDS011;27353;50.906;7.248;2022-12-18T15:34:40;27.30;;;19.67;;
41663;SDS011;27353;50.906;7.248;2022-12-18T15:37:06;38.88;;;23.08;;
41663;SDS011;27353;50.906;7.248;2022-12-18T15:39:32;39.50;;;22.92;;
41663;SDS011;27353;50.906;7.248;2022-12-18T15:42:00;35.55;;;23.83;;
41663;SDS011;27353;50.906;7.248;2022-12-18T15:44:45;30.88;;;22.30;;
41663;SDS011;27353;50.906;7.248;2022-12-18T15:47:11;39.28;;;22.65;;
41663;SDS011;27353;50.906;7.248;2022-12-18T15:49:38;36.90;;;26.17;;
41663;SDS011;27353;50.906;7.248;2022-12-18T15:52:04;40.10;;;27.13;;
41663;SDS011;27353;50.906;7.248;2022-12-18T15:54:30;31.35;;;21.42;;
41663;SDS011;27353;50.906;7.248;2022-12-18T15:57:15;26.75;;;20.42;;
41663;SDS011;27353;50.906;7.248;2022-12-18T15:59:53;43.25;;;26.85;;
41663;SDS011;27353;50.906;7.248;2022-12-18T16:02:23;34.97;;;22.95;;
41663;SDS011;27353;50.906;7.248;2022-12-18T16:04:49;36.92;;;23.40;;
41663;SDS011;27353;50.906;7.248;2022-12-18T16:07:17;34.58;;;24.40;;
41663;SDS011;27353;50.906;7.248;2022-12-18T16:09:43;37.83;;;21.35;;
41663;SDS011;27353;50.906;7.248;2022-12-18T16:12:18;43.88;;;24.13;;
41663;SDS011;27353;50.906;7.248;2022-12-18T16:14:46;38.83;;;23.85;;
41663;SDS011;27353;50.906;7.248;2022-12-18T16:17:13;45.10;;;24.58;;
41663;SDS011;27353;50.906;7.248;2022-12-18T16:19:39;38.42;;;21.05;;
41663;SDS011;27353;50.906;7.248;2022-12-18T16:22:14;38.92;;;25.70;;
41663;SDS011;27353;50.906;7.248;2022-12-18T16:24:50;36.28;;;23.45;;
41663;SDS011;27353;50.906;7.248;2022-12-18T16:27:16;37.65;;;24.60;;
41663;SDS011;27353;50.906;7.248;2022-12-18T16:29:42;39.67;;;24.52;;
41663;SDS011;27353;50.906;7.248;2022-12-18T16:32:08;42.78;;;24.60;;
41663;SDS011;27353;50.906;7.248;2022-12-18T16:34:41;36.58;;;24.40;;
41663;SDS011;27353;50.906;7.248;2022-12-18T16:37:08;39.63;;;23.48;;
41663;SDS011;27353;50.906;7.248;2022-12-18T16:39:36;36.80;;;24.02;;
41663;SDS011;27353;50.906;7.248;2022-12-18T16:42:03;48.95;;;24.08;;
41663;SDS011;27353;50.906;7.248;2022-12-18T16:44:30;37.97;;;24.05;;
41663;SDS011;27353;50.906;7.248;2022-12-18T16:46:56;36.63;;;23.80;;
41663;SDS011;27353;50.906;7.248;2022-12-18T16:49:26;35.97;;;22.77;;
41663;SDS011;27353;50.906;7.248;2022-12-18T16:51:52;46.33;;;23.98;;
41663;SDS011;27353;50.906;7.248;2022-12-18T16:54:18;36.67;;;24.60;;
41663;SDS011;27353;50.906;7.248;2022-12-18T16:56:44;40.35;;;24.00;;
41663;SDS011;27353;50.906;7.248;2022-12-18T16:59:11;42.30;;;24.63;;
41663;SDS011;27353;50.906;7.248;2022-12-18T17:01:37;29.50;;;22.67;;
41663;SDS011;27353;50.906;7.248;2022-12-18T17:04:04;39.00;;;22.73;;
41663;SDS011;27353;50.906;7.248;2022-12-18T17:06:31;37.00;;;23.55;;
41663;SDS011;27353;50.906;7.248;2022-12-18T17:09:03;38.55;;;23.80;;
41663;SDS011;27353;50.906;7.248;2022-12-18T17:11:30;46.10;;;22.50;;
41663;SDS011;27353;50.906;7.248;2022-12-18T17:13:57;38.00;;;22.35;;
41663;SDS011;27353;50.906;7.248;2022-12-18T17:16:23;40.53;;;23.15;;
41663;SDS011;27353;50.906;7.248;2022-12-18T17:18:51;44.35;;;23.27;;
41663;SDS011;27353;50.906;7.248;2022-12-18T17:21:17;49.35;;;26.88;;
41663;SDS011;27353;50.906;7.248;2022-12-18T17:23:43;39.25;;;23.73;;
41663;SDS011;27353;50.906;7.248;2022-12-18T17:26:09;42.80;;;24.95;;
41663;SDS011;27353;50.906;7.248;2022-12-18T17:28:36;40.05;;;24.48;;